sensor_id;sensor_type;location;lat;lon;timestamp;P1;durP1;ratioP1;P2;durP2;ratioP2
13868;SDS011;7004;48.206;16.402;2024-02-15T00:01:01;10.33;;;3.40;;
13868;SDS011;7004;48.206;16.402;2024-02-15T00:03:30;6.00;;;3.10;;
13868;SDS011;7004;48.206;16.402;2024-02-15T00:05:58;4.27;;;3.30;;
13868;SDS011;7004;48.206;16.402;2024-02-15T00:08:24;6.83;;;2.87;;
13868;SDS011;7004;48.206;16.402;2024-02-15T00:10:52;7.40;;;3.57;;
13868;SDS011;7004;48.206;16.402;2024-02-15T00:13:20;4.10;;;2.90;;
13868;SDS011;7004;48.206;16.402;2024-02-15T00:15:47;4.17;;;2.87;;
13868;SDS011;7004;48.206;16.402;2024-02-15T00:18:14;3.57;;;2.67;;
13868;SDS011;7004;48.206;16.402;2024-02-15T00:20:40;3.63;;;2.87;;
13868;SDS011;7004;48.206;16.402;2024-02-15T00:23:07;3.77;;;2.70;;
13868;SDS011;7004;48.206;16.402;2024-02-15T00:25:35;3.63;;;2.67;;
13868;SDS011;7004;48.206;16.402;2024-02-15T00:28:02;5.43;;;2.93;;
13868;SDS011;7004;48.206;16.402;2024-02-15T00:30:30;3.40;;;2.40;;
13868;SDS011;7004;48.206;16.402;2024-02-15T00:32:57;4.93;;;2.80;;
13868;SDS011;7004;48.206;16.402;2024-02-15T00:35:23;5.67;;;2.87;;
13868;SDS011;7004;48.206;16.402;2024-02-15T00:37:50;3.53;;;2.80;;
13868;SDS011;7004;48.206;16.402;2024-02-15T00:40:16;4.13;;;2.83;;
13868;SDS011;7004;48.206;16.402;2024-02-15T00:42:43;4.80;;;3.00;;
13868;SDS011;7004;48.206;16.402;2024-02-15T00:45:09;5.27;;;2.60;;
13868;SDS011;7004;48.206;16.402;2024-02-15T00:47:36;5.50;;;2.63;;
13868;SDS011;7004;48.206;16.402;2024-02-15T00:50:03;4.90;;;2.40;;
13868;SDS011;7004;48.206;16.402;2024-02-15T00:52:31;4.33;;;2.40;;
13868;SDS011;7004;48.206;16.402;2024-02-15T00:54:57;4.57;;;2.73;;
13868;SDS011;7004;48.206;16.402;2024-02-15T00:57:24;4.57;;;2.70;;
13868;SDS011;7004;48.206;16.402;2024-02-15T00:59:50;4.97;;;2.90;;
13868;SDS011;7004;48.206;16.402;2024-02-15T01:02:18;5.97;;;3.03;;
13868;SDS011;7004;48.206;16.402;2024-02-15T01:04:45;4.13;;;2.63;;
13868;SDS011;7004;48.206;16.402;2024-02-15T01:07:11;5.43;;;2.97;;
13868;SDS011;7004;48.206;16.402;2024-02-15T01:09:40;3.17;;;2.40;;
13868;SDS011;7004;48.206;16.402;2024-02-15T01:12:06;2.67;;;2.43;;
13868;SDS011;7004;48.206;16.402;2024-02-15T01:14:33;4.47;;;2.63;;
13868;SDS011;7004;48.206;16.402;2024-02-15T01:17:00;7.43;;;2.70;;
13868;SDS011;7004;48.206;16.402;2024-02-15T01:19:26;2.80;;;2.50;;
13868;SDS011;7004;48.206;16.402;2024-02-15T01:21:52;4.67;;;2.90;;
13868;SDS011;7004;48.206;16.402;2024-02-15T01:24:19;4.23;;;3.00;;
13868;SDS011;7004;48.206;16.402;2024-02-15T01:26:45;2.97;;;2.40;;
13868;SDS011;7004;48.206;16.402;2024-02-15T01:29:13;4.03;;;2.50;;
13868;SDS011;7004;48.206;16.402;2024-02-15T01:31:40;6.63;;;2.90;;
13868;SDS011;7004;48.206;16.402;2024-02-15T01:34:07;3.43;;;2.80;;
13868;SDS011;7004;48.206;16.402;2024-02-15T01:36:34;8.03;;;3.47;;
13868;SDS011;7004;48.206;16.402;2024-02-15T01:39:01;4.80;;;2.90;;
13868;SDS011;7004;48.206;16.402;2024-02-15T01:41:27;5.23;;;3.17;;
13868;SDS011;7004;48.206;16.402;2024-02-15T01:43:53;5.47;;;2.90;;
13868;SDS011;7004;48.206;16.402;2024-02-15T01:46:19;5.10;;;3.17;;
13868;SDS011;7004;48.206;16.402;2024-02-15T01:48:47;6.47;;;3.10;;
13868;SDS011;7004;48.206;16.402;2024-02-15T01:51:13;4.27;;;3.00;;
13868;SDS011;7004;48.206;16.402;2024-02-15T01:53:42;5.57;;;2.80;;
13868;SDS011;7004;48.206;16.402;2024-02-15T01:56:10;4.00;;;3.00;;
13868;SDS011;7004;48.206;16.402;2024-02-15T01:58:39;4.73;;;3.30;;
13868;SDS011;7004;48.206;16.402;2024-02-15T02:01:07;5.33;;;3.40;;
13868;SDS011;7004;48.206;16.402;2024-02-15T02:03:33;3.73;;;2.63;;
13868;SDS011;7004;48.206;16.402;2024-02-15T02:06:00;4.23;;;3.00;;
13868;SDS011;7004;48.206;16.402;2024-02-15T02:08:28;4.43;;;3.10;;
13868;SDS011;7004;48.206;16.402;2024-02-15T02:10:55;4.23;;;2.57;;
13868;SDS011;7004;48.206;16.402;2024-02-15T02:13:21;8.93;;;3.63;;
13868;SDS011;7004;48.206;16.402;2024-02-15T02:15:48;5.10;;;2.90;;
13868;SDS011;7004;48.206;16.402;2024-02-15T02:18:15;3.77;;;2.57;;
13868;SDS011;7004;48.206;16.402;2024-02-15T02:20:41;5.60;;;2.70;;
13868;SDS011;7004;48.206;16.402;2024-02-15T02:23:09;4.60;;;2.60;;
13868;SDS011;7004;48.206;16.402;2024-02-15T02:25:40;3.80;;;2.87;;
13868;SDS011;7004;48.206;16.402;2024-02-15T02:28:08;4.57;;;2.70;;
13868;SDS011;7004;48.206;16.402;2024-02-15T02:30:35;3.73;;;2.60;;
13868;SDS011;7004;48.206;16.402;2024-02-15T02:33:01;5.27;;;2.90;;
13868;SDS011;7004;48.206;16.402;2024-02-15T02:35:28;4.00;;;2.43;;
13868;SDS011;7004;48.206;16.402;2024-02-15T02:37:55;5.37;;;3.10;;
13868;SDS011;7004;48.206;16.402;2024-02-15T02:40:22;5.67;;;3.10;;
13868;SDS011;7004;48.206;16.402;2024-02-15T02:45:21;4.50;;;2.90;;
13868;SDS011;7004;48.206;16.402;2024-02-15T02:47:55;4.93;;;2.87;;
13868;SDS011;7004;48.206;16.402;2024-02-15T02:50:21;5.43;;;3.30;;
13868;SDS011;7004;48.206;16.402;2024-02-15T02:52:48;4.67;;;3.30;;
13868;SDS011;7004;48.206;16.402;2024-02-15T02:55:14;5.87;;;3.10;;
13868;SDS011;7004;48.206;16.402;2024-02-15T02:57:41;4.17;;;2.90;;
13868;SDS011;7004;48.206;16.402;2024-02-15T03:00:11;6.63;;;3.30;;
13868;SDS011;7004;48.206;16.402;2024-02-15T03:02:40;4.27;;;2.73;;
13868;SDS011;7004;48.206;16.402;2024-02-15T03:05:11;4.87;;;2.80;;
13868;SDS011;7004;48.206;16.402;2024-02-15T03:07:41;5.73;;;3.17;;
13868;SDS011;7004;48.206;16.402;2024-02-15T03:10:07;5.40;;;3.20;;
13868;SDS011;7004;48.206;16.402;2024-02-15T03:12:39;5.23;;;3.40;;
13868;SDS011;7004;48.206;16.402;2024-02-15T03:15:07;4.73;;;3.73;;
13868;SDS011;7004;48.206;16.402;2024-02-15T03:17:37;5.83;;;3.50;;
13868;SDS011;7004;48.206;16.402;2024-02-15T03:20:09;6.40;;;3.90;;
13868;SDS011;7004;48.206;16.402;2024-02-15T03:22:55;4.33;;;3.60;;
13868;SDS011;7004;48.206;16.402;2024-02-15T03:25:24;6.13;;;3.63;;
13868;SDS011;7004;48.206;16.402;2024-02-15T03:27:52;8.47;;;3.93;;
13868;SDS011;7004;48.206;16.402;2024-02-15T03:30:19;6.40;;;4.17;;
13868;SDS011;7004;48.206;16.402;2024-02-15T03:32:50;5.20;;;3.53;;
13868;SDS011;7004;48.206;16.402;2024-02-15T03:35:18;6.13;;;4.30;;
13868;SDS011;7004;48.206;16.402;2024-02-15T03:37:50;5.60;;;3.90;;
13868;SDS011;7004;48.206;16.402;2024-02-15T03:40:17;8.40;;;3.90;;
13868;SDS011;7004;48.206;16.402;2024-02-15T03:42:48;6.70;;;3.77;;
13868;SDS011;7004;48.206;16.402;2024-02-15T03:45:15;4.93;;;3.77;;
13868;SDS011;7004;48.206;16.402;2024-02-15T03:47:42;5.43;;;3.23;;
13868;SDS011;7004;48.206;16.402;2024-02-15T03:50:08;5.60;;;3.70;;
13868;SDS011;7004;48.206;16.402;2024-02-15T03:52:35;4.17;;;3.70;;
13868;SDS011;7004;48.206;16.402;2024-02-15T03:55:02;6.53;;;4.03;;
13868;SDS011;7004;48.206;16.402;2024-02-15T03:57:30;6.40;;;4.60;;
13868;SDS011;7004;48.206;16.402;2024-02-15T03:59:56;6.60;;;4.00;;
13868;SDS011;7004;48.206;16.402;2024-02-15T04:02:23;6.77;;;4.27;;
13868;SDS011;7004;48.206;16.402;2024-02-15T04:04:54;5.93;;;3.70;;
13868;SDS011;7004;48.206;16.402;2024-02-15T04:07:22;4.63;;;3.73;;
13868;SDS011;7004;48.206;16.402;2024-02-15T04:09:55;6.60;;;3.67;;
13868;SDS011;7004;48.206;16.402;2024-02-15T04:12:21;8.97;;;4.07;;
13868;SDS011;7004;48.206;16.402;2024-02-15T04:14:49;4.30;;;3.53;;
13868;SDS011;7004;48.206;16.402;2024-02-15T04:17:17;6.10;;;4.27;;
13868;SDS011;7004;48.206;16.402;2024-02-15T04:19:48;6.03;;;4.03;;
13868;SDS011;7004;48.206;16.402;2024-02-15T04:22:19;6.13;;;3.30;;
13868;SDS011;7004;48.206;16.402;2024-02-15T04:24:46;4.93;;;4.00;;
13868;SDS011;7004;48.206;16.402;2024-02-15T04:27:13;5.17;;;3.73;;
13868;SDS011;7004;48.206;16.402;2024-02-15T04:29:42;6.40;;;4.00;;
13868;SDS011;7004;48.206;16.402;2024-02-15T04:32:09;7.07;;;4.20;;
13868;SDS011;7004;48.206;16.402;2024-02-15T04:34:37;6.30;;;3.63;;
13868;SDS011;7004;48.206;16.402;2024-02-15T04:37:03;7.97;;;3.80;;
13868;SDS011;7004;48.206;16.402;2024-02-15T04:39:33;6.57;;;4.13;;
13868;SDS011;7004;48.206;16.402;2024-02-15T04:42:04;8.70;;;4.30;;
13868;SDS011;7004;48.206;16.402;2024-02-15T04:44:33;6.33;;;4.33;;
13868;SDS011;7004;48.206;16.402;2024-02-15T04:47:01;5.67;;;3.77;;
13868;SDS011;7004;48.206;16.402;2024-02-15T04:49:34;5.37;;;3.97;;
13868;SDS011;7004;48.206;16.402;2024-02-15T04:52:03;9.43;;;4.03;;
13868;SDS011;7004;48.206;16.402;2024-02-15T04:54:31;6.87;;;3.97;;
13868;SDS011;7004;48.206;16.402;2024-02-15T04:56:58;6.80;;;4.23;;
13868;SDS011;7004;48.206;16.402;2024-02-15T04:59:24;6.97;;;4.37;;
13868;SDS011;7004;48.206;16.402;2024-02-15T05:01:54;6.60;;;4.07;;
13868;SDS011;7004;48.206;16.402;2024-02-15T05:04:21;8.83;;;4.33;;
13868;SDS011;7004;48.206;16.402;2024-02-15T05:06:50;9.07;;;4.57;;
13868;SDS011;7004;48.206;16.402;2024-02-15T05:09:19;5.63;;;4.30;;
13868;SDS011;7004;48.206;16.402;2024-02-15T05:11:46;5.77;;;4.27;;
13868;SDS011;7004;48.206;16.402;2024-02-15T05:14:15;5.90;;;4.00;;
13868;SDS011;7004;48.206;16.402;2024-02-15T05:16:45;7.50;;;4.50;;
13868;SDS011;7004;48.206;16.402;2024-02-15T05:19:16;6.30;;;4.20;;
13868;SDS011;7004;48.206;16.402;2024-02-15T05:21:43;7.10;;;4.63;;
13868;SDS011;7004;48.206;16.402;2024-02-15T05:24:14;6.00;;;4.20;;
13868;SDS011;7004;48.206;16.402;2024-02-15T05:26:43;7.90;;;4.70;;
13868;SDS011;7004;48.206;16.402;2024-02-15T05:29:14;9.00;;;4.30;;
13868;SDS011;7004;48.206;16.402;2024-02-15T05:31:41;8.10;;;4.97;;
13868;SDS011;7004;48.206;16.402;2024-02-15T05:34:07;7.23;;;4.57;;
13868;SDS011;7004;48.206;16.402;2024-02-15T05:36:37;7.57;;;4.53;;
13868;SDS011;7004;48.206;16.402;2024-02-15T05:39:03;4.80;;;4.30;;
13868;SDS011;7004;48.206;16.402;2024-02-15T05:41:33;8.97;;;5.00;;
13868;SDS011;7004;48.206;16.402;2024-02-15T05:44:00;7.17;;;5.20;;
13868;SDS011;7004;48.206;16.402;2024-02-15T05:46:27;7.47;;;4.97;;
13868;SDS011;7004;48.206;16.402;2024-02-15T05:48:56;10.87;;;6.30;;
13868;SDS011;7004;48.206;16.402;2024-02-15T05:51:22;6.20;;;4.30;;
13868;SDS011;7004;48.206;16.402;2024-02-15T05:53:48;11.67;;;5.47;;
13868;SDS011;7004;48.206;16.402;2024-02-15T05:56:14;7.70;;;5.37;;
13868;SDS011;7004;48.206;16.402;2024-02-15T05:58:41;7.93;;;5.17;;
13868;SDS011;7004;48.206;16.402;2024-02-15T06:01:08;7.60;;;6.07;;
13868;SDS011;7004;48.206;16.402;2024-02-15T06:03:38;11.77;;;6.40;;
13868;SDS011;7004;48.206;16.402;2024-02-15T06:06:06;12.03;;;5.80;;
13868;SDS011;7004;48.206;16.402;2024-02-15T06:08:33;9.27;;;5.50;;
13868;SDS011;7004;48.206;16.402;2024-02-15T06:11:00;7.50;;;5.43;;
13868;SDS011;7004;48.206;16.402;2024-02-15T06:13:27;8.70;;;4.63;;
13868;SDS011;7004;48.206;16.402;2024-02-15T06:15:53;7.60;;;5.37;;
13868;SDS011;7004;48.206;16.402;2024-02-15T06:18:20;7.87;;;4.67;;
13868;SDS011;7004;48.206;16.402;2024-02-15T06:20:49;7.90;;;5.10;;
13868;SDS011;7004;48.206;16.402;2024-02-15T06:23:16;9.47;;;5.30;;
13868;SDS011;7004;48.206;16.402;2024-02-15T06:25:43;8.53;;;5.60;;
13868;SDS011;7004;48.206;16.402;2024-02-15T06:28:13;10.63;;;5.23;;
13868;SDS011;7004;48.206;16.402;2024-02-15T06:30:59;8.03;;;4.60;;
13868;SDS011;7004;48.206;16.402;2024-02-15T06:33:44;8.63;;;5.10;;
13868;SDS011;7004;48.206;16.402;2024-02-15T06:36:29;8.40;;;4.93;;
13868;SDS011;7004;48.206;16.402;2024-02-15T06:39:14;9.00;;;5.40;;
13868;SDS011;7004;48.206;16.402;2024-02-15T06:41:59;9.43;;;5.47;;
13868;SDS011;7004;48.206;16.402;2024-02-15T06:44:27;8.27;;;5.63;;
13868;SDS011;7004;48.206;16.402;2024-02-15T06:46:53;13.17;;;5.80;;
13868;SDS011;7004;48.206;16.402;2024-02-15T06:49:20;10.10;;;6.27;;
13868;SDS011;7004;48.206;16.402;2024-02-15T06:51:50;7.87;;;6.20;;
13868;SDS011;7004;48.206;16.402;2024-02-15T06:54:16;8.93;;;5.60;;
13868;SDS011;7004;48.206;16.402;2024-02-15T06:56:46;15.40;;;7.07;;
13868;SDS011;7004;48.206;16.402;2024-02-15T06:59:13;11.20;;;5.80;;
13868;SDS011;7004;48.206;16.402;2024-02-15T07:01:42;10.97;;;6.53;;
13868;SDS011;7004;48.206;16.402;2024-02-15T07:04:09;12.13;;;7.07;;
13868;SDS011;7004;48.206;16.402;2024-02-15T07:06:39;11.57;;;7.20;;
13868;SDS011;7004;48.206;16.402;2024-02-15T07:09:05;13.40;;;6.53;;
13868;SDS011;7004;48.206;16.402;2024-02-15T07:11:32;10.37;;;7.30;;
13868;SDS011;7004;48.206;16.402;2024-02-15T07:14:02;13.53;;;7.17;;
13868;SDS011;7004;48.206;16.402;2024-02-15T07:16:30;14.07;;;6.30;;
13868;SDS011;7004;48.206;16.402;2024-02-15T07:18:56;9.57;;;6.83;;
13868;SDS011;7004;48.206;16.402;2024-02-15T07:21:22;9.93;;;6.33;;
13868;SDS011;7004;48.206;16.402;2024-02-15T07:23:52;13.30;;;7.47;;
13868;SDS011;7004;48.206;16.402;2024-02-15T07:26:23;13.93;;;7.07;;
13868;SDS011;7004;48.206;16.402;2024-02-15T07:28:51;12.23;;;7.53;;
13868;SDS011;7004;48.206;16.402;2024-02-15T07:31:20;9.17;;;6.73;;
13868;SDS011;7004;48.206;16.402;2024-02-15T07:33:50;14.80;;;7.43;;
13868;SDS011;7004;48.206;16.402;2024-02-15T07:36:20;10.10;;;7.40;;
13868;SDS011;7004;48.206;16.402;2024-02-15T07:38:47;11.00;;;7.47;;
13868;SDS011;7004;48.206;16.402;2024-02-15T07:41:14;12.57;;;8.00;;
13868;SDS011;7004;48.206;16.402;2024-02-15T07:43:45;18.53;;;7.67;;
13868;SDS011;7004;48.206;16.402;2024-02-15T07:46:12;14.70;;;8.07;;
13868;SDS011;7004;48.206;16.402;2024-02-15T07:48:39;16.67;;;7.80;;
13868;SDS011;7004;48.206;16.402;2024-02-15T07:51:14;15.10;;;8.13;;
13868;SDS011;7004;48.206;16.402;2024-02-15T07:53:45;17.73;;;8.67;;
13868;SDS011;7004;48.206;16.402;2024-02-15T07:56:13;12.93;;;8.20;;
13868;SDS011;7004;48.206;16.402;2024-02-15T07:58:41;11.27;;;8.30;;
13868;SDS011;7004;48.206;16.402;2024-02-15T08:01:12;14.73;;;8.87;;
13868;SDS011;7004;48.206;16.402;2024-02-15T08:03:40;12.47;;;9.17;;
13868;SDS011;7004;48.206;16.402;2024-02-15T08:06:11;11.97;;;8.60;;
13868;SDS011;7004;48.206;16.402;2024-02-15T08:08:38;14.47;;;8.50;;
13868;SDS011;7004;48.206;16.402;2024-02-15T08:11:06;11.90;;;8.50;;
13868;SDS011;7004;48.206;16.402;2024-02-15T08:13:49;16.03;;;8.47;;
13868;SDS011;7004;48.206;16.402;2024-02-15T08:16:22;17.60;;;9.03;;
13868;SDS011;7004;48.206;16.402;2024-02-15T08:18:49;17.10;;;8.77;;
13868;SDS011;7004;48.206;16.402;2024-02-15T08:21:26;14.90;;;9.00;;
13868;SDS011;7004;48.206;16.402;2024-02-15T08:23:54;12.97;;;9.17;;
13868;SDS011;7004;48.206;16.402;2024-02-15T08:26:21;15.37;;;9.00;;
13868;SDS011;7004;48.206;16.402;2024-02-15T08:28:47;14.13;;;9.20;;
13868;SDS011;7004;48.206;16.402;2024-02-15T08:31:13;15.60;;;9.53;;
13868;SDS011;7004;48.206;16.402;2024-02-15T08:33:41;12.70;;;8.53;;
13868;SDS011;7004;48.206;16.402;2024-02-15T08:36:09;17.67;;;8.87;;
13868;SDS011;7004;48.206;16.402;2024-02-15T08:38:36;13.97;;;9.03;;
13868;SDS011;7004;48.206;16.402;2024-02-15T08:41:02;16.83;;;10.80;;
13868;SDS011;7004;48.206;16.402;2024-02-15T08:43:33;14.53;;;9.03;;
13868;SDS011;7004;48.206;16.402;2024-02-15T08:46:00;15.33;;;9.50;;
13868;SDS011;7004;48.206;16.402;2024-02-15T08:48:26;13.07;;;9.30;;
13868;SDS011;7004;48.206;16.402;2024-02-15T08:50:52;12.27;;;9.03;;
13868;SDS011;7004;48.206;16.402;2024-02-15T08:53:18;14.80;;;8.63;;
13868;SDS011;7004;48.206;16.402;2024-02-15T08:55:45;16.23;;;8.77;;
13868;SDS011;7004;48.206;16.402;2024-02-15T08:58:12;17.40;;;9.20;;
13868;SDS011;7004;48.206;16.402;2024-02-15T09:00:38;14.07;;;9.07;;
13868;SDS011;7004;48.206;16.402;2024-02-15T09:03:10;15.60;;;9.23;;
13868;SDS011;7004;48.206;16.402;2024-02-15T09:05:39;15.73;;;9.53;;
13868;SDS011;7004;48.206;16.402;2024-02-15T09:08:06;13.77;;;8.90;;
13868;SDS011;7004;48.206;16.402;2024-02-15T09:10:32;15.33;;;8.70;;
13868;SDS011;7004;48.206;16.402;2024-02-15T09:12:59;14.13;;;9.00;;
13868;SDS011;7004;48.206;16.402;2024-02-15T09:15:25;12.83;;;8.63;;
13868;SDS011;7004;48.206;16.402;2024-02-15T09:17:51;11.27;;;8.47;;
13868;SDS011;7004;48.206;16.402;2024-02-15T09:20:19;13.47;;;8.93;;
13868;SDS011;7004;48.206;16.402;2024-02-15T09:22:50;13.20;;;9.20;;
13868;SDS011;7004;48.206;16.402;2024-02-15T09:25:17;12.73;;;8.60;;
13868;SDS011;7004;48.206;16.402;2024-02-15T09:27:44;13.47;;;9.30;;
13868;SDS011;7004;48.206;16.402;2024-02-15T09:30:11;14.17;;;9.23;;
13868;SDS011;7004;48.206;16.402;2024-02-15T09:32:39;12.90;;;8.97;;
13868;SDS011;7004;48.206;16.402;2024-02-15T09:35:05;12.10;;;9.13;;
13868;SDS011;7004;48.206;16.402;2024-02-15T09:37:46;12.00;;;9.57;;
13868;SDS011;7004;48.206;16.402;2024-02-15T09:40:14;16.23;;;9.30;;
13868;SDS011;7004;48.206;16.402;2024-02-15T09:42:42;12.67;;;8.90;;
13868;SDS011;7004;48.206;16.402;2024-02-15T09:45:12;13.77;;;8.93;;
13868;SDS011;7004;48.206;16.402;2024-02-15T09:47:40;12.67;;;8.33;;
13868;SDS011;7004;48.206;16.402;2024-02-15T09:50:08;16.43;;;9.43;;
13868;SDS011;7004;48.206;16.402;2024-02-15T09:55:14;13.07;;;8.30;;
13868;SDS011;7004;48.206;16.402;2024-02-15T09:57:42;12.93;;;8.73;;
13868;SDS011;7004;48.206;16.402;2024-02-15T10:00:10;11.17;;;8.13;;
13868;SDS011;7004;48.206;16.402;2024-02-15T10:02:42;11.57;;;8.20;;
13868;SDS011;7004;48.206;16.402;2024-02-15T10:05:10;15.67;;;8.87;;
13868;SDS011;7004;48.206;16.402;2024-02-15T10:07:38;9.90;;;7.43;;
13868;SDS011;7004;48.206;16.402;2024-02-15T10:10:18;8.93;;;7.37;;
13868;SDS011;7004;48.206;16.402;2024-02-15T10:12:46;9.10;;;6.93;;
13868;SDS011;7004;48.206;16.402;2024-02-15T10:18:09;9.70;;;6.23;;
13868;SDS011;7004;48.206;16.402;2024-02-15T10:20:37;9.47;;;6.40;;
13868;SDS011;7004;48.206;16.402;2024-02-15T10:25:34;8.00;;;6.20;;
13868;SDS011;7004;48.206;16.402;2024-02-15T10:28:02;10.07;;;6.60;;
13868;SDS011;7004;48.206;16.402;2024-02-15T10:30:39;10.93;;;5.90;;
13868;SDS011;7004;48.206;16.402;2024-02-15T10:33:25;7.23;;;5.70;;
13868;SDS011;7004;48.206;16.402;2024-02-15T10:36:17;9.10;;;5.63;;
13868;SDS011;7004;48.206;16.402;2024-02-15T10:38:44;7.87;;;4.40;;
13868;SDS011;7004;48.206;16.402;2024-02-15T10:41:10;5.47;;;4.17;;
13868;SDS011;7004;48.206;16.402;2024-02-15T10:43:37;5.27;;;4.20;;
13868;SDS011;7004;48.206;16.402;2024-02-15T10:46:04;7.23;;;4.60;;
13868;SDS011;7004;48.206;16.402;2024-02-15T10:48:35;9.40;;;4.40;;
13868;SDS011;7004;48.206;16.402;2024-02-15T10:51:03;7.73;;;4.50;;
13868;SDS011;7004;48.206;16.402;2024-02-15T10:53:35;7.13;;;4.30;;
13868;SDS011;7004;48.206;16.402;2024-02-15T10:56:12;8.10;;;4.40;;
13868;SDS011;7004;48.206;16.402;2024-02-15T10:58:55;7.43;;;4.17;;
13868;SDS011;7004;48.206;16.402;2024-02-15T11:01:35;7.27;;;4.60;;
13868;SDS011;7004;48.206;16.402;2024-02-15T11:04:04;5.17;;;3.87;;
13868;SDS011;7004;48.206;16.402;2024-02-15T11:06:34;3.93;;;3.53;;
13868;SDS011;7004;48.206;16.402;2024-02-15T11:09:07;7.83;;;4.73;;
13868;SDS011;7004;48.206;16.402;2024-02-15T11:11:34;4.87;;;3.37;;
13868;SDS011;7004;48.206;16.402;2024-02-15T11:16:55;4.63;;;3.40;;
13868;SDS011;7004;48.206;16.402;2024-02-15T11:22:01;5.80;;;3.07;;
13868;SDS011;7004;48.206;16.402;2024-02-15T11:24:49;5.53;;;2.50;;
13868;SDS011;7004;48.206;16.402;2024-02-15T11:27:24;3.10;;;2.53;;
13868;SDS011;7004;48.206;16.402;2024-02-15T11:29:53;6.00;;;2.53;;
13868;SDS011;7004;48.206;16.402;2024-02-15T11:32:34;3.90;;;2.50;;
13868;SDS011;7004;48.206;16.402;2024-02-15T11:35:10;2.40;;;2.20;;
13868;SDS011;7004;48.206;16.402;2024-02-15T11:42:53;3.33;;;2.30;;
13868;SDS011;7004;48.206;16.402;2024-02-15T11:45:30;2.87;;;2.23;;
13868;SDS011;7004;48.206;16.402;2024-02-15T11:47:58;3.77;;;2.40;;
13868;SDS011;7004;48.206;16.402;2024-02-15T11:50:27;3.40;;;2.43;;
13868;SDS011;7004;48.206;16.402;2024-02-15T11:53:01;2.77;;;2.50;;
13868;SDS011;7004;48.206;16.402;2024-02-15T11:55:31;3.13;;;2.80;;
13868;SDS011;7004;48.206;16.402;2024-02-15T11:57:58;3.00;;;2.70;;
13868;SDS011;7004;48.206;16.402;2024-02-15T12:00:28;4.87;;;3.10;;
13868;SDS011;7004;48.206;16.402;2024-02-15T12:03:17;6.07;;;3.07;;
13868;SDS011;7004;48.206;16.402;2024-02-15T12:06:03;5.73;;;3.17;;
13868;SDS011;7004;48.206;16.402;2024-02-15T12:08:54;5.13;;;3.77;;
13868;SDS011;7004;48.206;16.402;2024-02-15T12:11:39;5.73;;;4.57;;
13868;SDS011;7004;48.206;16.402;2024-02-15T12:14:24;7.63;;;5.50;;
13868;SDS011;7004;48.206;16.402;2024-02-15T12:17:10;8.10;;;5.50;;
13868;SDS011;7004;48.206;16.402;2024-02-15T12:19:57;10.77;;;6.20;;
13868;SDS011;7004;48.206;16.402;2024-02-15T12:22:32;8.67;;;6.50;;
13868;SDS011;7004;48.206;16.402;2024-02-15T12:25:06;7.33;;;6.37;;
13868;SDS011;7004;48.206;16.402;2024-02-15T12:27:42;6.60;;;5.80;;
13868;SDS011;7004;48.206;16.402;2024-02-15T12:30:15;11.33;;;6.17;;
13868;SDS011;7004;48.206;16.402;2024-02-15T12:32:49;7.97;;;6.53;;
13868;SDS011;7004;48.206;16.402;2024-02-15T12:35:20;9.30;;;6.30;;
13868;SDS011;7004;48.206;16.402;2024-02-15T12:38:00;10.80;;;6.57;;
13868;SDS011;7004;48.206;16.402;2024-02-15T12:40:37;8.87;;;5.87;;
13868;SDS011;7004;48.206;16.402;2024-02-15T12:43:05;7.53;;;6.53;;
13868;SDS011;7004;48.206;16.402;2024-02-15T12:45:38;9.47;;;6.73;;
13868;SDS011;7004;48.206;16.402;2024-02-15T12:48:07;8.50;;;6.07;;
13868;SDS011;7004;48.206;16.402;2024-02-15T12:50:34;9.50;;;6.63;;
13868;SDS011;7004;48.206;16.402;2024-02-15T12:53:00;12.23;;;7.03;;
13868;SDS011;7004;48.206;16.402;2024-02-15T12:55:34;7.77;;;6.67;;
13868;SDS011;7004;48.206;16.402;2024-02-15T12:58:02;8.37;;;6.43;;
13868;SDS011;7004;48.206;16.402;2024-02-15T13:00:36;11.43;;;6.00;;
13868;SDS011;7004;48.206;16.402;2024-02-15T13:03:05;9.67;;;7.23;;
13868;SDS011;7004;48.206;16.402;2024-02-15T13:05:37;7.93;;;6.60;;
13868;SDS011;7004;48.206;16.402;2024-02-15T13:08:04;7.00;;;6.30;;
13868;SDS011;7004;48.206;16.402;2024-02-15T13:10:36;6.83;;;5.70;;
13868;SDS011;7004;48.206;16.402;2024-02-15T13:13:04;6.73;;;5.83;;
13868;SDS011;7004;48.206;16.402;2024-02-15T13:15:31;9.80;;;6.83;;
13868;SDS011;7004;48.206;16.402;2024-02-15T13:18:01;10.10;;;6.23;;
13868;SDS011;7004;48.206;16.402;2024-02-15T13:20:30;6.93;;;6.07;;
13868;SDS011;7004;48.206;16.402;2024-02-15T13:23:04;9.27;;;6.03;;
13868;SDS011;7004;48.206;16.402;2024-02-15T13:25:40;6.97;;;6.27;;
13868;SDS011;7004;48.206;16.402;2024-02-15T13:28:08;8.67;;;6.07;;
13868;SDS011;7004;48.206;16.402;2024-02-15T13:30:38;8.63;;;5.83;;
13868;SDS011;7004;48.206;16.402;2024-02-15T13:33:04;7.93;;;5.40;;
13868;SDS011;7004;48.206;16.402;2024-02-15T13:35:31;10.23;;;5.80;;
13868;SDS011;7004;48.206;16.402;2024-02-15T13:37:58;8.13;;;5.73;;
13868;SDS011;7004;48.206;16.402;2024-02-15T13:40:24;11.43;;;6.00;;
13868;SDS011;7004;48.206;16.402;2024-02-15T13:42:56;9.07;;;6.10;;
13868;SDS011;7004;48.206;16.402;2024-02-15T13:45:34;7.30;;;5.87;;
13868;SDS011;7004;48.206;16.402;2024-02-15T13:48:10;6.77;;;5.50;;
13868;SDS011;7004;48.206;16.402;2024-02-15T13:50:40;7.47;;;5.53;;
13868;SDS011;7004;48.206;16.402;2024-02-15T13:53:06;9.87;;;6.07;;
13868;SDS011;7004;48.206;16.402;2024-02-15T13:55:34;5.97;;;5.23;;
13868;SDS011;7004;48.206;16.402;2024-02-15T13:58:02;6.30;;;5.27;;
13868;SDS011;7004;48.206;16.402;2024-02-15T14:00:31;7.07;;;4.73;;
13868;SDS011;7004;48.206;16.402;2024-02-15T14:03:02;11.73;;;4.83;;
13868;SDS011;7004;48.206;16.402;2024-02-15T14:05:31;6.20;;;4.47;;
13868;SDS011;7004;48.206;16.402;2024-02-15T14:07:59;6.87;;;4.63;;
13868;SDS011;7004;48.206;16.402;2024-02-15T14:10:34;8.70;;;5.10;;
13868;SDS011;7004;48.206;16.402;2024-02-15T14:13:02;6.57;;;5.17;;
13868;SDS011;7004;48.206;16.402;2024-02-15T14:15:36;6.83;;;5.80;;
13868;SDS011;7004;48.206;16.402;2024-02-15T14:18:12;6.87;;;5.43;;
13868;SDS011;7004;48.206;16.402;2024-02-15T14:20:39;6.97;;;5.47;;
13868;SDS011;7004;48.206;16.402;2024-02-15T14:23:08;7.33;;;5.93;;
13868;SDS011;7004;48.206;16.402;2024-02-15T14:25:39;6.27;;;5.43;;
13868;SDS011;7004;48.206;16.402;2024-02-15T14:28:05;8.43;;;6.23;;
13868;SDS011;7004;48.206;16.402;2024-02-15T14:30:34;7.27;;;6.30;;
13868;SDS011;7004;48.206;16.402;2024-02-15T14:33:23;12.13;;;6.60;;
13868;SDS011;7004;48.206;16.402;2024-02-15T14:35:50;10.50;;;6.27;;
13868;SDS011;7004;48.206;16.402;2024-02-15T14:38:21;14.57;;;10.20;;
13868;SDS011;7004;48.206;16.402;2024-02-15T14:40:48;12.77;;;6.90;;
13868;SDS011;7004;48.206;16.402;2024-02-15T14:43:23;16.13;;;7.13;;
13868;SDS011;7004;48.206;16.402;2024-02-15T14:45:50;10.60;;;7.10;;
13868;SDS011;7004;48.206;16.402;2024-02-15T14:48:18;10.93;;;7.07;;
13868;SDS011;7004;48.206;16.402;2024-02-15T14:50:46;12.23;;;6.83;;
13868;SDS011;7004;48.206;16.402;2024-02-15T14:53:14;10.60;;;7.23;;
13868;SDS011;7004;48.206;16.402;2024-02-15T14:55:40;7.97;;;6.73;;
13868;SDS011;7004;48.206;16.402;2024-02-15T14:58:14;9.67;;;7.30;;
13868;SDS011;7004;48.206;16.402;2024-02-15T15:00:44;8.07;;;6.70;;
13868;SDS011;7004;48.206;16.402;2024-02-15T15:03:11;13.17;;;7.20;;
13868;SDS011;7004;48.206;16.402;2024-02-15T15:05:42;12.27;;;7.60;;
13868;SDS011;7004;48.206;16.402;2024-02-15T15:08:27;9.83;;;7.57;;
13868;SDS011;7004;48.206;16.402;2024-02-15T15:11:12;11.17;;;7.90;;
13868;SDS011;7004;48.206;16.402;2024-02-15T15:13:57;17.80;;;9.03;;
13868;SDS011;7004;48.206;16.402;2024-02-15T15:16:23;14.00;;;9.43;;
13868;SDS011;7004;48.206;16.402;2024-02-15T15:18:50;11.93;;;9.03;;